sensor_id;sensor_type;location;lat;lon;timestamp;P1;durP1;ratioP1;P2;durP2;ratioP2
46407;SDS011;32110;45.724;21.276;2023-05-28T00:00:14;23.98;;;12.82;;
46407;SDS011;32110;45.724;21.276;2023-05-28T00:02:40;24.58;;;14.02;;
46407;SDS011;32110;45.724;21.276;2023-05-28T00:05:06;25.38;;;13.80;;
46407;SDS011;32110;45.724;21.276;2023-05-28T00:07:31;25.75;;;12.88;;
46407;SDS011;32110;45.724;21.276;2023-05-28T00:09:57;22.55;;;13.30;;
46407;SDS011;32110;45.724;21.276;2023-05-28T00:12:23;23.25;;;13.30;;
46407;SDS011;32110;45.724;21.276;2023-05-28T00:14:48;24.13;;;13.15;;
46407;SDS011;32110;45.724;21.276;2023-05-28T00:17:14;21.45;;;13.65;;
46407;SDS011;32110;45.724;21.276;2023-05-28T00:19:43;21.50;;;13.57;;
46407;SDS011;32110;45.724;21.276;2023-05-28T00:22:09;22.55;;;13.07;;
46407;SDS011;32110;45.724;21.276;2023-05-28T00:24:35;26.58;;;13.23;;
46407;SDS011;32110;45.724;21.276;2023-05-28T00:27:00;20.88;;;12.82;;
46407;SDS011;32110;45.724;21.276;2023-05-28T00:29:26;24.38;;;13.25;;
46407;SDS011;32110;45.724;21.276;2023-05-28T00:31:55;23.95;;;13.95;;
46407;SDS011;32110;45.724;21.276;2023-05-28T00:34:21;26.55;;;13.18;;
46407;SDS011;32110;45.724;21.276;2023-05-28T00:36:48;26.30;;;12.50;;
46407;SDS011;32110;45.724;21.276;2023-05-28T00:39:17;21.65;;;13.13;;
46407;SDS011;32110;45.724;21.276;2023-05-28T00:41:43;24.45;;;13.68;;
46407;SDS011;32110;45.724;21.276;2023-05-28T00:44:09;22.98;;;13.27;;
46407;SDS011;32110;45.724;21.276;2023-05-28T00:46:35;22.10;;;12.30;;
46407;SDS011;32110;45.724;21.276;2023-05-28T00:49:02;20.85;;;12.15;;
46407;SDS011;32110;45.724;21.276;2023-05-28T00:51:28;21.25;;;12.23;;
46407;SDS011;32110;45.724;21.276;2023-05-28T00:53:54;21.05;;;12.30;;
46407;SDS011;32110;45.724;21.276;2023-05-28T00:56:20;24.05;;;12.90;;
46407;SDS011;32110;45.724;21.276;2023-05-28T00:58:47;20.30;;;12.52;;
46407;SDS011;32110;45.724;21.276;2023-05-28T01:01:14;20.20;;;11.82;;
46407;SDS011;32110;45.724;21.276;2023-05-28T01:03:40;22.85;;;12.70;;
46407;SDS011;32110;45.724;21.276;2023-05-28T01:06:06;20.85;;;12.65;;
46407;SDS011;32110;45.724;21.276;2023-05-28T01:08:34;20.00;;;11.45;;
46407;SDS011;32110;45.724;21.276;2023-05-28T01:11:02;21.35;;;11.30;;
46407;SDS011;32110;45.724;21.276;2023-05-28T01:13:27;18.40;;;12.38;;
46407;SDS011;32110;45.724;21.276;2023-05-28T01:15:53;19.38;;;11.88;;
46407;SDS011;32110;45.724;21.276;2023-05-28T01:18:19;15.85;;;11.52;;
46407;SDS011;32110;45.724;21.276;2023-05-28T01:20:44;17.55;;;11.32;;
46407;SDS011;32110;45.724;21.276;2023-05-28T01:23:11;22.02;;;11.77;;
46407;SDS011;32110;45.724;21.276;2023-05-28T01:25:40;19.95;;;11.93;;
46407;SDS011;32110;45.724;21.276;2023-05-28T01:28:12;20.98;;;12.55;;
46407;SDS011;32110;45.724;21.276;2023-05-28T01:30:40;24.17;;;12.63;;
46407;SDS011;32110;45.724;21.276;2023-05-28T01:33:06;21.98;;;13.13;;
46407;SDS011;32110;45.724;21.276;2023-05-28T01:35:31;23.48;;;12.88;;
46407;SDS011;32110;45.724;21.276;2023-05-28T01:37:59;27.02;;;13.32;;
46407;SDS011;32110;45.724;21.276;2023-05-28T01:40:27;23.23;;;11.70;;
46407;SDS011;32110;45.724;21.276;2023-05-28T01:42:54;22.88;;;12.80;;
46407;SDS011;32110;45.724;21.276;2023-05-28T01:45:20;21.65;;;11.98;;
46407;SDS011;32110;45.724;21.276;2023-05-28T01:47:46;22.38;;;12.10;;
46407;SDS011;32110;45.724;21.276;2023-05-28T01:50:13;20.75;;;12.98;;
46407;SDS011;32110;45.724;21.276;2023-05-28T01:52:39;21.20;;;12.23;;
46407;SDS011;32110;45.724;21.276;2023-05-28T01:55:05;25.10;;;12.65;;
46407;SDS011;32110;45.724;21.276;2023-05-28T01:57:33;18.95;;;12.02;;
46407;SDS011;32110;45.724;21.276;2023-05-28T01:59:59;20.42;;;12.43;;
46407;SDS011;32110;45.724;21.276;2023-05-28T02:02:25;23.70;;;13.13;;
46407;SDS011;32110;45.724;21.276;2023-05-28T02:04:51;21.90;;;12.82;;
46407;SDS011;32110;45.724;21.276;2023-05-28T02:07:18;20.70;;;13.10;;
46407;SDS011;32110;45.724;21.276;2023-05-28T02:09:43;21.73;;;12.68;;
46407;SDS011;32110;45.724;21.276;2023-05-28T02:12:10;23.70;;;12.65;;
46407;SDS011;32110;45.724;21.276;2023-05-28T02:14:36;23.55;;;12.82;;
46407;SDS011;32110;45.724;21.276;2023-05-28T02:17:01;23.67;;;12.75;;
46407;SDS011;32110;45.724;21.276;2023-05-28T02:19:26;26.25;;;12.32;;
46407;SDS011;32110;45.724;21.276;2023-05-28T02:21:52;21.35;;;13.02;;
46407;SDS011;32110;45.724;21.276;2023-05-28T02:24:18;24.42;;;12.52;;
46407;SDS011;32110;45.724;21.276;2023-05-28T02:26:44;19.50;;;11.65;;
46407;SDS011;32110;45.724;21.276;2023-05-28T02:29:09;30.98;;;12.63;;
46407;SDS011;32110;45.724;21.276;2023-05-28T02:31:34;25.55;;;13.02;;
46407;SDS011;32110;45.724;21.276;2023-05-28T02:34:00;23.40;;;13.02;;
46407;SDS011;32110;45.724;21.276;2023-05-28T02:36:25;23.50;;;13.35;;
46407;SDS011;32110;45.724;21.276;2023-05-28T02:38:50;24.83;;;13.98;;
46407;SDS011;32110;45.724;21.276;2023-05-28T02:41:16;25.98;;;13.50;;
46407;SDS011;32110;45.724;21.276;2023-05-28T02:43:42;24.33;;;12.90;;
46407;SDS011;32110;45.724;21.276;2023-05-28T02:46:08;21.05;;;13.02;;
46407;SDS011;32110;45.724;21.276;2023-05-28T02:48:34;25.17;;;12.68;;
46407;SDS011;32110;45.724;21.276;2023-05-28T02:50:59;24.70;;;12.38;;
46407;SDS011;32110;45.724;21.276;2023-05-28T02:53:28;22.65;;;12.55;;
46407;SDS011;32110;45.724;21.276;2023-05-28T02:55:55;23.05;;;12.20;;
46407;SDS011;32110;45.724;21.276;2023-05-28T02:58:20;26.85;;;12.48;;
46407;SDS011;32110;45.724;21.276;2023-05-28T03:00:46;25.48;;;12.68;;
46407;SDS011;32110;45.724;21.276;2023-05-28T03:03:11;24.05;;;13.40;;
46407;SDS011;32110;45.724;21.276;2023-05-28T03:05:36;20.17;;;13.32;;
46407;SDS011;32110;45.724;21.276;2023-05-28T03:08:02;22.75;;;12.55;;
46407;SDS011;32110;45.724;21.276;2023-05-28T03:10:28;30.52;;;13.40;;
46407;SDS011;32110;45.724;21.276;2023-05-28T03:12:53;21.15;;;13.77;;
46407;SDS011;32110;45.724;21.276;2023-05-28T03:15:19;27.20;;;13.43;;
46407;SDS011;32110;45.724;21.276;2023-05-28T03:17:44;24.55;;;13.18;;
46407;SDS011;32110;45.724;21.276;2023-05-28T03:20:10;22.75;;;13.20;;
46407;SDS011;32110;45.724;21.276;2023-05-28T03:22:37;22.60;;;12.80;;
46407;SDS011;32110;45.724;21.276;2023-05-28T03:25:03;21.65;;;12.40;;
46407;SDS011;32110;45.724;21.276;2023-05-28T03:27:29;24.25;;;13.05;;
46407;SDS011;32110;45.724;21.276;2023-05-28T03:29:55;23.25;;;13.15;;
46407;SDS011;32110;45.724;21.276;2023-05-28T03:32:20;26.27;;;13.23;;
46407;SDS011;32110;45.724;21.276;2023-05-28T03:34:46;19.35;;;12.40;;
46407;SDS011;32110;45.724;21.276;2023-05-28T03:37:11;18.98;;;12.38;;
46407;SDS011;32110;45.724;21.276;2023-05-28T03:39:37;20.60;;;12.35;;
46407;SDS011;32110;45.724;21.276;2023-05-28T03:42:02;24.92;;;12.48;;
46407;SDS011;32110;45.724;21.276;2023-05-28T03:44:28;20.63;;;12.50;;
46407;SDS011;32110;45.724;21.276;2023-05-28T03:46:54;20.65;;;12.55;;
46407;SDS011;32110;45.724;21.276;2023-05-28T03:49:19;20.10;;;11.77;;
46407;SDS011;32110;45.724;21.276;2023-05-28T03:51:45;20.95;;;13.25;;
46407;SDS011;32110;45.724;21.276;2023-05-28T03:54:10;22.50;;;12.30;;
46407;SDS011;32110;45.724;21.276;2023-05-28T03:56:35;17.15;;;12.20;;
46407;SDS011;32110;45.724;21.276;2023-05-28T03:59:01;21.63;;;11.70;;
46407;SDS011;32110;45.724;21.276;2023-05-28T04:01:26;24.15;;;11.95;;
46407;SDS011;32110;45.724;21.276;2023-05-28T04:03:53;25.42;;;12.90;;
46407;SDS011;32110;45.724;21.276;2023-05-28T04:06:20;20.38;;;11.82;;
46407;SDS011;32110;45.724;21.276;2023-05-28T04:08:46;22.40;;;11.80;;
46407;SDS011;32110;45.724;21.276;2023-05-28T04:11:12;15.60;;;11.80;;
46407;SDS011;32110;45.724;21.276;2023-05-28T04:13:38;21.70;;;12.35;;
46407;SDS011;32110;45.724;21.276;2023-05-28T04:16:05;17.13;;;12.23;;
46407;SDS011;32110;45.724;21.276;2023-05-28T04:18:32;18.83;;;12.88;;
46407;SDS011;32110;45.724;21.276;2023-05-28T04:20:58;19.48;;;12.10;;
46407;SDS011;32110;45.724;21.276;2023-05-28T04:23:23;18.10;;;12.68;;
46407;SDS011;32110;45.724;21.276;2023-05-28T04:25:49;20.40;;;12.23;;
46407;SDS011;32110;45.724;21.276;2023-05-28T04:28:15;18.90;;;12.63;;
46407;SDS011;32110;45.724;21.276;2023-05-28T04:30:40;20.75;;;12.15;;
46407;SDS011;32110;45.724;21.276;2023-05-28T04:33:06;18.52;;;12.05;;
46407;SDS011;32110;45.724;21.276;2023-05-28T04:35:31;16.70;;;11.85;;
46407;SDS011;32110;45.724;21.276;2023-05-28T04:37:57;14.57;;;11.37;;
46407;SDS011;32110;45.724;21.276;2023-05-28T04:40:22;15.73;;;12.23;;
46407;SDS011;32110;45.724;21.276;2023-05-28T04:42:47;18.75;;;12.50;;
46407;SDS011;32110;45.724;21.276;2023-05-28T04:45:12;16.87;;;11.50;;
46407;SDS011;32110;45.724;21.276;2023-05-28T04:47:38;19.42;;;13.30;;
46407;SDS011;32110;45.724;21.276;2023-05-28T04:50:03;17.40;;;12.48;;
46407;SDS011;32110;45.724;21.276;2023-05-28T04:52:29;18.45;;;13.30;;
46407;SDS011;32110;45.724;21.276;2023-05-28T04:54:57;20.10;;;13.90;;
46407;SDS011;32110;45.724;21.276;2023-05-28T04:57:23;19.75;;;13.77;;
46407;SDS011;32110;45.724;21.276;2023-05-28T04:59:48;19.23;;;13.25;;
46407;SDS011;32110;45.724;21.276;2023-05-28T05:02:14;18.83;;;13.30;;
46407;SDS011;32110;45.724;21.276;2023-05-28T05:04:42;19.08;;;13.18;;
46407;SDS011;32110;45.724;21.276;2023-05-28T05:07:07;18.35;;;12.60;;
46407;SDS011;32110;45.724;21.276;2023-05-28T05:09:32;20.37;;;13.83;;
46407;SDS011;32110;45.724;21.276;2023-05-28T05:11:57;18.93;;;13.73;;
46407;SDS011;32110;45.724;21.276;2023-05-28T05:14:22;19.60;;;13.23;;
46407;SDS011;32110;45.724;21.276;2023-05-28T05:16:48;19.13;;;13.80;;
46407;SDS011;32110;45.724;21.276;2023-05-28T05:19:13;21.83;;;14.77;;
46407;SDS011;32110;45.724;21.276;2023-05-28T05:21:38;75.28;;;38.45;;
46407;SDS011;32110;45.724;21.276;2023-05-28T05:24:04;31.13;;;21.02;;
46407;SDS011;32110;45.724;21.276;2023-05-28T05:26:29;20.67;;;14.80;;
46407;SDS011;32110;45.724;21.276;2023-05-28T05:28:55;20.83;;;13.80;;
46407;SDS011;32110;45.724;21.276;2023-05-28T05:31:20;22.83;;;15.30;;
46407;SDS011;32110;45.724;21.276;2023-05-28T05:33:46;23.27;;;14.73;;
46407;SDS011;32110;45.724;21.276;2023-05-28T05:36:11;28.50;;;15.18;;
46407;SDS011;32110;45.724;21.276;2023-05-28T05:38:37;31.52;;;16.73;;
46407;SDS011;32110;45.724;21.276;2023-05-28T05:41:03;30.38;;;16.35;;
46407;SDS011;32110;45.724;21.276;2023-05-28T05:43:28;22.70;;;15.77;;
46407;SDS011;32110;45.724;21.276;2023-05-28T05:45:54;27.38;;;16.25;;
46407;SDS011;32110;45.724;21.276;2023-05-28T05:48:19;27.08;;;16.70;;
46407;SDS011;32110;45.724;21.276;2023-05-28T05:50:48;30.35;;;17.20;;
46407;SDS011;32110;45.724;21.276;2023-05-28T05:53:14;32.97;;;16.65;;
46407;SDS011;32110;45.724;21.276;2023-05-28T05:55:40;29.70;;;18.42;;
46407;SDS011;32110;45.724;21.276;2023-05-28T05:58:06;25.55;;;16.15;;
46407;SDS011;32110;45.724;21.276;2023-05-28T06:00:31;23.45;;;15.40;;
46407;SDS011;32110;45.724;21.276;2023-05-28T06:02:56;23.20;;;15.48;;
46407;SDS011;32110;45.724;21.276;2023-05-28T06:05:22;24.08;;;15.95;;
46407;SDS011;32110;45.724;21.276;2023-05-28T06:07:47;24.50;;;16.17;;
46407;SDS011;32110;45.724;21.276;2023-05-28T06:10:13;27.60;;;16.00;;
46407;SDS011;32110;45.724;21.276;2023-05-28T06:12:38;24.67;;;16.58;;
46407;SDS011;32110;45.724;21.276;2023-05-28T06:15:03;27.60;;;15.00;;
46407;SDS011;32110;45.724;21.276;2023-05-28T06:17:30;23.73;;;14.35;;
46407;SDS011;32110;45.724;21.276;2023-05-28T06:19:56;19.95;;;14.40;;
46407;SDS011;32110;45.724;21.276;2023-05-28T06:22:22;23.65;;;15.35;;
46407;SDS011;32110;45.724;21.276;2023-05-28T06:24:47;25.48;;;15.80;;
46407;SDS011;32110;45.724;21.276;2023-05-28T06:27:14;26.70;;;15.05;;
46407;SDS011;32110;45.724;21.276;2023-05-28T06:29:40;26.88;;;15.75;;
46407;SDS011;32110;45.724;21.276;2023-05-28T06:32:06;22.90;;;15.10;;
46407;SDS011;32110;45.724;21.276;2023-05-28T06:34:32;25.60;;;15.93;;
46407;SDS011;32110;45.724;21.276;2023-05-28T06:36:57;23.05;;;16.13;;
46407;SDS011;32110;45.724;21.276;2023-05-28T06:39:23;25.02;;;15.63;;
46407;SDS011;32110;45.724;21.276;2023-05-28T06:41:48;25.08;;;15.48;;
46407;SDS011;32110;45.724;21.276;2023-05-28T06:44:13;26.00;;;15.85;;
46407;SDS011;32110;45.724;21.276;2023-05-28T06:46:39;23.50;;;15.45;;
46407;SDS011;32110;45.724;21.276;2023-05-28T06:49:04;27.38;;;16.05;;
46407;SDS011;32110;45.724;21.276;2023-05-28T06:51:30;22.15;;;15.73;;
46407;SDS011;32110;45.724;21.276;2023-05-28T06:53:56;21.50;;;14.23;;
46407;SDS011;32110;45.724;21.276;2023-05-28T06:56:21;20.98;;;14.48;;
46407;SDS011;32110;45.724;21.276;2023-05-28T06:58:47;17.67;;;13.38;;
46407;SDS011;32110;45.724;21.276;2023-05-28T07:01:14;19.75;;;13.75;;
46407;SDS011;32110;45.724;21.276;2023-05-28T07:03:39;21.42;;;13.57;;
46407;SDS011;32110;45.724;21.276;2023-05-28T07:06:05;19.65;;;12.85;;
46407;SDS011;32110;45.724;21.276;2023-05-28T07:08:30;16.80;;;12.57;;
46407;SDS011;32110;45.724;21.276;2023-05-28T07:10:56;20.17;;;13.90;;
46407;SDS011;32110;45.724;21.276;2023-05-28T07:13:21;20.85;;;13.20;;
46407;SDS011;32110;45.724;21.276;2023-05-28T07:15:47;21.67;;;14.68;;
46407;SDS011;32110;45.724;21.276;2023-05-28T07:18:12;18.75;;;12.93;;
46407;SDS011;32110;45.724;21.276;2023-05-28T07:20:38;18.42;;;13.48;;
46407;SDS011;32110;45.724;21.276;2023-05-28T07:23:03;20.38;;;13.80;;
46407;SDS011;32110;45.724;21.276;2023-05-28T07:25:29;18.33;;;13.75;;
46407;SDS011;32110;45.724;21.276;2023-05-28T07:27:55;18.33;;;12.98;;
46407;SDS011;32110;45.724;21.276;2023-05-28T07:30:20;19.45;;;13.43;;
46407;SDS011;32110;45.724;21.276;2023-05-28T07:32:46;21.25;;;13.02;;
46407;SDS011;32110;45.724;21.276;2023-05-28T07:35:11;19.08;;;12.65;;
46407;SDS011;32110;45.724;21.276;2023-05-28T07:37:36;17.40;;;12.90;;
46407;SDS011;32110;45.724;21.276;2023-05-28T07:40:03;18.48;;;13.55;;
46407;SDS011;32110;45.724;21.276;2023-05-28T07:42:30;21.10;;;12.50;;
46407;SDS011;32110;45.724;21.276;2023-05-28T07:44:55;15.57;;;12.02;;
46407;SDS011;32110;45.724;21.276;2023-05-28T07:47:21;17.15;;;12.10;;
46407;SDS011;32110;45.724;21.276;2023-05-28T07:49:46;18.52;;;12.43;;
46407;SDS011;32110;45.724;21.276;2023-05-28T07:52:11;18.00;;;11.63;;
46407;SDS011;32110;45.724;21.276;2023-05-28T07:54:37;18.05;;;11.75;;
46407;SDS011;32110;45.724;21.276;2023-05-28T07:57:04;15.68;;;11.35;;
46407;SDS011;32110;45.724;21.276;2023-05-28T07:59:30;16.15;;;11.75;;
46407;SDS011;32110;45.724;21.276;2023-05-28T08:01:56;15.20;;;11.60;;
46407;SDS011;32110;45.724;21.276;2023-05-28T08:04:21;15.32;;;10.93;;
46407;SDS011;32110;45.724;21.276;2023-05-28T08:06:47;15.82;;;11.88;;
46407;SDS011;32110;45.724;21.276;2023-05-28T08:09:13;16.58;;;11.35;;
46407;SDS011;32110;45.724;21.276;2023-05-28T08:11:42;17.33;;;11.68;;
46407;SDS011;32110;45.724;21.276;2023-05-28T08:14:08;18.25;;;12.32;;
46407;SDS011;32110;45.724;21.276;2023-05-28T08:16:34;16.20;;;12.38;;
46407;SDS011;32110;45.724;21.276;2023-05-28T08:18:59;14.98;;;12.05;;
46407;SDS011;32110;45.724;21.276;2023-05-28T08:21:25;17.35;;;12.10;;
46407;SDS011;32110;45.724;21.276;2023-05-28T08:23:52;15.43;;;12.20;;
46407;SDS011;32110;45.724;21.276;2023-05-28T08:26:18;16.27;;;12.15;;
46407;SDS011;32110;45.724;21.276;2023-05-28T08:28:43;14.75;;;11.82;;
46407;SDS011;32110;45.724;21.276;2023-05-28T08:31:09;20.13;;;12.13;;
46407;SDS011;32110;45.724;21.276;2023-05-28T08:33:34;18.58;;;11.77;;
46407;SDS011;32110;45.724;21.276;2023-05-28T08:36:00;14.23;;;11.27;;
46407;SDS011;32110;45.724;21.276;2023-05-28T08:38:27;14.85;;;11.60;;
46407;SDS011;32110;45.724;21.276;2023-05-28T08:40:54;17.20;;;11.80;;
46407;SDS011;32110;45.724;21.276;2023-05-28T08:43:20;17.35;;;12.85;;
46407;SDS011;32110;45.724;21.276;2023-05-28T08:45:46;15.02;;;11.65;;
46407;SDS011;32110;45.724;21.276;2023-05-28T08:48:12;17.50;;;12.30;;
46407;SDS011;32110;45.724;21.276;2023-05-28T08:50:40;17.08;;;12.57;;
46407;SDS011;32110;45.724;21.276;2023-05-28T08:53:06;16.40;;;12.15;;
46407;SDS011;32110;45.724;21.276;2023-05-28T08:55:36;19.85;;;12.88;;
46407;SDS011;32110;45.724;21.276;2023-05-28T08:58:02;16.35;;;12.75;;
46407;SDS011;32110;45.724;21.276;2023-05-28T09:00:28;18.50;;;12.48;;
46407;SDS011;32110;45.724;21.276;2023-05-28T09:02:53;15.00;;;10.88;;
46407;SDS011;32110;45.724;21.276;2023-05-28T09:05:19;18.80;;;12.57;;
46407;SDS011;32110;45.724;21.276;2023-05-28T09:07:44;16.52;;;12.18;;
46407;SDS011;32110;45.724;21.276;2023-05-28T09:10:13;17.40;;;13.02;;
46407;SDS011;32110;45.724;21.276;2023-05-28T09:12:38;15.43;;;11.73;;
46407;SDS011;32110;45.724;21.276;2023-05-28T09:15:06;15.25;;;11.48;;
46407;SDS011;32110;45.724;21.276;2023-05-28T09:17:33;16.95;;;12.55;;
46407;SDS011;32110;45.724;21.276;2023-05-28T09:20:11;16.85;;;11.95;;
46407;SDS011;32110;45.724;21.276;2023-05-28T09:22:37;16.48;;;11.95;;
46407;SDS011;32110;45.724;21.276;2023-05-28T09:25:04;16.73;;;11.98;;
46407;SDS011;32110;45.724;21.276;2023-05-28T09:27:31;23.00;;;12.70;;
46407;SDS011;32110;45.724;21.276;2023-05-28T09:30:01;15.30;;;11.27;;
46407;SDS011;32110;45.724;21.276;2023-05-28T09:32:35;15.73;;;11.85;;
46407;SDS011;32110;45.724;21.276;2023-05-28T09:35:01;16.52;;;12.02;;
46407;SDS011;32110;45.724;21.276;2023-05-28T09:37:29;16.25;;;11.50;;
46407;SDS011;32110;45.724;21.276;2023-05-28T09:40:01;14.10;;;11.48;;
46407;SDS011;32110;45.724;21.276;2023-05-28T09:42:38;16.80;;;11.77;;
46407;SDS011;32110;45.724;21.276;2023-05-28T09:45:09;13.13;;;11.57;;
46407;SDS011;32110;45.724;21.276;2023-05-28T09:47:42;15.80;;;11.73;;
46407;SDS011;32110;45.724;21.276;2023-05-28T09:50:08;17.27;;;12.13;;
46407;SDS011;32110;45.724;21.276;2023-05-28T09:52:34;15.85;;;12.15;;
46407;SDS011;32110;45.724;21.276;2023-05-28T09:55:04;13.15;;;10.60;;
46407;SDS011;32110;45.724;21.276;2023-05-28T09:57:32;17.58;;;11.50;;
46407;SDS011;32110;45.724;21.276;2023-05-28T09:59:59;12.43;;;9.85;;
46407;SDS011;32110;45.724;21.276;2023-05-28T10:05:35;13.43;;;9.77;;
46407;SDS011;32110;45.724;21.276;2023-05-28T10:08:01;13.98;;;10.40;;
46407;SDS011;32110;45.724;21.276;2023-05-28T10:10:30;11.93;;;10.43;;
46407;SDS011;32110;45.724;21.276;2023-05-28T10:12:57;14.63;;;10.35;;
46407;SDS011;32110;45.724;21.276;2023-05-28T10:15:23;14.73;;;10.80;;
46407;SDS011;32110;45.724;21.276;2023-05-28T10:17:49;13.30;;;10.95;;
46407;SDS011;32110;45.724;21.276;2023-05-28T10:20:18;17.57;;;10.37;;
46407;SDS011;32110;45.724;21.276;2023-05-28T10:22:44;11.30;;;9.50;;
46407;SDS011;32110;45.724;21.276;2023-05-28T10:25:10;12.15;;;9.70;;
46407;SDS011;32110;45.724;21.276;2023-05-28T10:27:37;12.20;;;9.25;;
46407;SDS011;32110;45.724;21.276;2023-05-28T10:30:09;14.57;;;9.55;;
46407;SDS011;32110;45.724;21.276;2023-05-28T10:32:40;13.50;;;9.60;;
46407;SDS011;32110;45.724;21.276;2023-05-28T10:35:06;11.73;;;9.02;;
46407;SDS011;32110;45.724;21.276;2023-05-28T10:37:34;13.63;;;8.77;;
46407;SDS011;32110;45.724;21.276;2023-05-28T10:40:00;10.57;;;8.32;;
46407;SDS011;32110;45.724;21.276;2023-05-28T10:42:26;12.05;;;9.18;;
46407;SDS011;32110;45.724;21.276;2023-05-28T10:47:37;13.85;;;8.57;;
46407;SDS011;32110;45.724;21.276;2023-05-28T10:52:35;11.50;;;8.68;;
46407;SDS011;32110;45.724;21.276;2023-05-28T10:55:02;13.10;;;8.68;;
46407;SDS011;32110;45.724;21.276;2023-05-28T10:57:47;12.75;;;8.55;;
46407;SDS011;32110;45.724;21.276;2023-05-28T11:00:22;13.40;;;8.32;;
46407;SDS011;32110;45.724;21.276;2023-05-28T11:02:52;11.90;;;8.32;;
46407;SDS011;32110;45.724;21.276;2023-05-28T11:05:24;11.68;;;8.05;;
46407;SDS011;32110;45.724;21.276;2023-05-28T11:07:50;11.55;;;7.60;;
46407;SDS011;32110;45.724;21.276;2023-05-28T11:10:16;11.68;;;7.57;;
46407;SDS011;32110;45.724;21.276;2023-05-28T11:12:42;9.80;;;7.88;;
46407;SDS011;32110;45.724;21.276;2023-05-28T11:15:09;15.02;;;7.63;;
46407;SDS011;32110;45.724;21.276;2023-05-28T11:17:37;10.23;;;7.67;;
46407;SDS011;32110;45.724;21.276;2023-05-28T11:20:04;11.75;;;7.50;;
46407;SDS011;32110;45.724;21.276;2023-05-28T11:22:34;8.40;;;6.60;;
46407;SDS011;32110;45.724;21.276;2023-05-28T11:25:07;12.63;;;7.38;;
46407;SDS011;32110;45.724;21.276;2023-05-28T11:27:34;9.40;;;7.20;;
46407;SDS011;32110;45.724;21.276;2023-05-28T11:30:06;8.50;;;7.20;;
46407;SDS011;32110;45.724;21.276;2023-05-28T11:32:33;10.80;;;7.18;;
46407;SDS011;32110;45.724;21.276;2023-05-28T11:34:59;9.35;;;6.53;;
46407;SDS011;32110;45.724;21.276;2023-05-28T11:37:25;9.68;;;7.03;;
46407;SDS011;32110;45.724;21.276;2023-05-28T11:39:52;9.07;;;7.03;;
46407;SDS011;32110;45.724;21.276;2023-05-28T11:42:19;9.90;;;6.55;;
46407;SDS011;32110;45.724;21.276;2023-05-28T11:44:45;7.68;;;6.05;;
46407;SDS011;32110;45.724;21.276;2023-05-28T11:47:12;8.23;;;6.20;;
46407;SDS011;32110;45.724;21.276;2023-05-28T11:49:38;8.82;;;6.78;;
46407;SDS011;32110;45.724;21.276;2023-05-28T11:52:13;9.68;;;6.55;;
46407;SDS011;32110;45.724;21.276;2023-05-28T11:54:41;10.45;;;6.28;;
46407;SDS011;32110;45.724;21.276;2023-05-28T11:57:07;11.73;;;7.35;;
46407;SDS011;32110;45.724;21.276;2023-05-28T11:59:33;10.13;;;6.53;;
46407;SDS011;32110;45.724;21.276;2023-05-28T12:02:13;6.82;;;6.07;;
46407;SDS011;32110;45.724;21.276;2023-05-28T12:04:56;11.82;;;6.45;;
46407;SDS011;32110;45.724;21.276;2023-05-28T12:07:27;10.10;;;6.35;;
46407;SDS011;32110;45.724;21.276;2023-05-28T12:12:32;7.35;;;5.88;;
46407;SDS011;32110;45.724;21.276;2023-05-28T12:15:02;8.82;;;6.55;;
46407;SDS011;32110;45.724;21.276;2023-05-28T12:17:32;9.10;;;6.22;;
46407;SDS011;32110;45.724;21.276;2023-05-28T12:20:02;9.52;;;6.63;;
46407;SDS011;32110;45.724;21.276;2023-05-28T12:22:30;8.75;;;6.18;;
46407;SDS011;32110;45.724;21.276;2023-05-28T12:24:55;9.40;;;6.30;;
46407;SDS011;32110;45.724;21.276;2023-05-28T12:27:21;8.50;;;6.03;;
46407;SDS011;32110;45.724;21.276;2023-05-28T12:29:46;8.90;;;6.32;;
46407;SDS011;32110;45.724;21.276;2023-05-28T12:32:12;9.68;;;6.10;;
46407;SDS011;32110;45.724;21.276;2023-05-28T12:34:37;8.25;;;6.22;;
46407;SDS011;32110;45.724;21.276;2023-05-28T12:37:03;8.77;;;5.72;;
46407;SDS011;32110;45.724;21.276;2023-05-28T12:39:29;9.55;;;5.85;;
46407;SDS011;32110;45.724;21.276;2023-05-28T12:41:55;6.57;;;5.00;;
46407;SDS011;32110;45.724;21.276;2023-05-28T12:44:20;6.68;;;5.35;;
46407;SDS011;32110;45.724;21.276;2023-05-28T12:46:45;6.18;;;5.30;;
46407;SDS011;32110;45.724;21.276;2023-05-28T12:49:11;8.15;;;5.70;;
46407;SDS011;32110;45.724;21.276;2023-05-28T12:51:37;7.68;;;5.32;;
46407;SDS011;32110;45.724;21.276;2023-05-28T12:54:04;8.48;;;5.70;;
46407;SDS011;32110;45.724;21.276;2023-05-28T12:56:30;9.10;;;5.70;;
46407;SDS011;32110;45.724;21.276;2023-05-28T12:58:56;6.95;;;5.50;;
46407;SDS011;32110;45.724;21.276;2023-05-28T13:01:21;11.77;;;5.85;;
46407;SDS011;32110;45.724;21.276;2023-05-28T13:03:47;9.48;;;6.20;;
46407;SDS011;32110;45.724;21.276;2023-05-28T13:06:12;7.35;;;6.00;;
46407;SDS011;32110;45.724;21.276;2023-05-28T13:08:37;6.80;;;5.57;;
46407;SDS011;32110;45.724;21.276;2023-05-28T13:11:03;8.85;;;5.68;;
46407;SDS011;32110;45.724;21.276;2023-05-28T13:13:28;6.40;;;4.95;;
46407;SDS011;32110;45.724;21.276;2023-05-28T13:15:54;9.13;;;5.47;;
46407;SDS011;32110;45.724;21.276;2023-05-28T13:18:19;8.20;;;4.85;;
46407;SDS011;32110;45.724;21.276;2023-05-28T13:20:45;5.72;;;5.05;;
46407;SDS011;32110;45.724;21.276;2023-05-28T13:23:10;8.77;;;5.60;;
46407;SDS011;32110;45.724;21.276;2023-05-28T13:25:36;7.28;;;5.35;;
46407;SDS011;32110;45.724;21.276;2023-05-28T13:28:02;7.03;;;5.25;;
46407;SDS011;32110;45.724;21.276;2023-05-28T13:30:28;6.30;;;5.32;;
46407;SDS011;32110;45.724;21.276;2023-05-28T13:32:53;8.10;;;5.80;;
46407;SDS011;32110;45.724;21.276;2023-05-28T13:35:18;6.35;;;4.88;;
46407;SDS011;32110;45.724;21.276;2023-05-28T13:37:45;6.88;;;4.75;;
46407;SDS011;32110;45.724;21.276;2023-05-28T13:40:11;6.85;;;4.63;;
46407;SDS011;32110;45.724;21.276;2023-05-28T13:42:38;8.88;;;5.00;;
46407;SDS011;32110;45.724;21.276;2023-05-28T13:45:05;7.60;;;5.10;;
46407;SDS011;32110;45.724;21.276;2023-05-28T13:47:31;9.15;;;4.57;;
46407;SDS011;32110;45.724;21.276;2023-05-28T13:49:57;5.55;;;4.68;;
46407;SDS011;32110;45.724;21.276;2023-05-28T13:52:23;9.25;;;5.63;;
46407;SDS011;32110;45.724;21.276;2023-05-28T13:54:48;9.98;;;5.57;;
46407;SDS011;32110;45.724;21.276;2023-05-28T13:57:14;9.00;;;6.93;;
46407;SDS011;32110;45.724;21.276;2023-05-28T13:59:39;8.68;;;7.10;;
46407;SDS011;32110;45.724;21.276;2023-05-28T14:02:05;7.97;;;5.68;;
46407;SDS011;32110;45.724;21.276;2023-05-28T14:04:31;10.35;;;6.60;;
46407;SDS011;32110;45.724;21.276;2023-05-28T14:06:56;7.50;;;6.25;;
46407;SDS011;32110;45.724;21.276;2023-05-28T14:09:22;10.65;;;5.72;;
46407;SDS011;32110;45.724;21.276;2023-05-28T14:11:47;9.98;;;5.63;;
46407;SDS011;32110;45.724;21.276;2023-05-28T14:14:13;7.57;;;6.28;;
46407;SDS011;32110;45.724;21.276;2023-05-28T14:16:38;13.55;;;6.10;;
46407;SDS011;32110;45.724;21.276;2023-05-28T14:19:04;12.10;;;6.30;;